Hanover, Michigan
Current Conditions -  °F | °C
As of 2:56 PM on Saturday 25 Oct 2014 (Local Time) from KJXN Reporting Station
Clear Clear  
Wind Chill: 67°   Ceiling: Unl
Heat Index: 67°   Visibility: 10mi
Dew Point: 43°   Wind: 20mph
Humidity: 42%   Direction: 260°W
Pressure: 29.79"   Gusts: 29mph
Location:  42.1°N, 84.55°W
Report Text: KJXN 251856Z 26017G25KT 10SM CLR 19/06 A2979 RMK AO2 PK WND 29026/1841 SLP087 T01940061
Loading
Personal Weather Stations






























Interactive Weather Map
Tropical Storm Tracking
New forecast layout! Learn more

10-Day Weather Forecast

Advertisements
Track Severe Weather on mobile